sensor_id;sensor_type;location;lat;lon;timestamp;pressure;altitude;pressure_sealevel;temperature;humidity
26719;BME280;14326;50.794;6.060;2023-04-03T00:00:53;100838.34;;;2.08;100.00
26719;BME280;14326;50.794;6.060;2023-04-03T00:03:32;100844.91;;;2.01;100.00
26719;BME280;14326;50.794;6.060;2023-04-03T00:06:00;100846.56;;;1.99;100.00
26719;BME280;14326;50.794;6.060;2023-04-03T00:08:30;100854.34;;;1.97;100.00
26719;BME280;14326;50.794;6.060;2023-04-03T00:11:05;100856.69;;;1.93;100.00
26719;BME280;14326;50.794;6.060;2023-04-03T00:13:45;100848.81;;;1.93;100.00
26719;BME280;14326;50.794;6.060;2023-04-03T00:16:27;100859.09;;;1.90;100.00
26719;BME280;14326;50.794;6.060;2023-04-03T00:19:10;100854.47;;;1.86;100.00
26719;BME280;14326;50.794;6.060;2023-04-03T00:21:39;100841.13;;;1.83;100.00
26719;BME280;14326;50.794;6.060;2023-04-03T00:24:06;100856.00;;;1.82;100.00
26719;BME280;14326;50.794;6.060;2023-04-03T00:26:47;100852.38;;;1.80;100.00
26719;BME280;14326;50.794;6.060;2023-04-03T00:29:15;100851.28;;;1.77;100.00
26719;BME280;14326;50.794;6.060;2023-04-03T00:31:44;100855.22;;;1.70;100.00
26719;BME280;14326;50.794;6.060;2023-04-03T00:34:12;100849.06;;;1.70;100.00
26719;BME280;14326;50.794;6.060;2023-04-03T00:36:39;100851.47;;;1.67;100.00
26719;BME280;14326;50.794;6.060;2023-04-03T00:39:06;100844.34;;;1.64;100.00
26719;BME280;14326;50.794;6.060;2023-04-03T00:41:33;100847.47;;;1.58;100.00
26719;BME280;14326;50.794;6.060;2023-04-03T00:44:23;100844.63;;;1.55;100.00
26719;BME280;14326;50.794;6.060;2023-04-03T00:47:30;100842.44;;;1.48;100.00
26719;BME280;14326;50.794;6.060;2023-04-03T00:53:17;100842.03;;;1.42;100.00
26719;BME280;14326;50.794;6.060;2023-04-03T00:55:47;100843.44;;;1.37;100.00
26719;BME280;14326;50.794;6.060;2023-04-03T00:58:30;100850.72;;;1.41;100.00
26719;BME280;14326;50.794;6.060;2023-04-03T01:01:21;100851.94;;;1.33;100.00
26719;BME280;14326;50.794;6.060;2023-04-03T01:06:36;100857.97;;;1.32;100.00
26719;BME280;14326;50.794;6.060;2023-04-03T01:14:11;100859.00;;;1.21;100.00
26719;BME280;14326;50.794;6.060;2023-04-03T01:17:03;100860.09;;;1.24;100.00
26719;BME280;14326;50.794;6.060;2023-04-03T01:19:41;100855.88;;;1.27;100.00
26719;BME280;14326;50.794;6.060;2023-04-03T01:22:28;100862.81;;;1.26;100.00
26719;BME280;14326;50.794;6.060;2023-04-03T01:25:16;100864.41;;;1.24;100.00
26719;BME280;14326;50.794;6.060;2023-04-03T01:27:43;100864.63;;;1.27;100.00
26719;BME280;14326;50.794;6.060;2023-04-03T01:30:11;100860.09;;;1.24;100.00
26719;BME280;14326;50.794;6.060;2023-04-03T01:35:09;100859.00;;;1.21;100.00
26719;BME280;14326;50.794;6.060;2023-04-03T01:42:53;100866.44;;;1.15;100.00
26719;BME280;14326;50.794;6.060;2023-04-03T01:45:32;100859.78;;;1.20;100.00
26719;BME280;14326;50.794;6.060;2023-04-03T01:50:35;100869.25;;;1.31;100.00
26719;BME280;14326;50.794;6.060;2023-04-03T01:58:18;100869.69;;;1.11;100.00
26719;BME280;14326;50.794;6.060;2023-04-03T02:06:01;100875.00;;;0.99;100.00
26719;BME280;14326;50.794;6.060;2023-04-03T02:13:35;100872.97;;;0.82;100.00
26719;BME280;14326;50.794;6.060;2023-04-03T02:21:22;100880.81;;;0.82;100.00
26719;BME280;14326;50.794;6.060;2023-04-03T02:51:03;100892.56;;;0.62;100.00
26719;BME280;14326;50.794;6.060;2023-04-03T02:53:32;100892.00;;;0.55;100.00
26719;BME280;14326;50.794;6.060;2023-04-03T02:56:02;100890.53;;;0.58;100.00
26719;BME280;14326;50.794;6.060;2023-04-03T02:58:37;100893.72;;;0.54;100.00
26719;BME280;14326;50.794;6.060;2023-04-03T03:01:30;100887.38;;;0.51;100.00
26719;BME280;14326;50.794;6.060;2023-04-03T03:09:38;100885.25;;;0.45;100.00
26719;BME280;14326;50.794;6.060;2023-04-03T03:14:40;100882.81;;;0.48;100.00
26719;BME280;14326;50.794;6.060;2023-04-03T03:17:20;100885.03;;;0.42;100.00
26719;BME280;14326;50.794;6.060;2023-04-03T03:22:21;100889.88;;;0.49;100.00
26719;BME280;14326;50.794;6.060;2023-04-03T03:27:42;100890.00;;;0.51;100.00
26719;BME280;14326;50.794;6.060;2023-04-03T03:30:38;100890.59;;;0.47;100.00
26719;BME280;14326;50.794;6.060;2023-04-03T03:33:05;100885.63;;;0.38;100.00
26719;BME280;14326;50.794;6.060;2023-04-03T03:35:37;100881.97;;;0.36;100.00
26719;BME280;14326;50.794;6.060;2023-04-03T03:38:36;100882.25;;;0.27;100.00
26719;BME280;14326;50.794;6.060;2023-04-03T03:43:55;100887.88;;;0.45;100.00
26719;BME280;14326;50.794;6.060;2023-04-03T03:46:47;100898.75;;;0.51;100.00
26719;BME280;14326;50.794;6.060;2023-04-03T03:49:31;100897.53;;;0.46;100.00
26719;BME280;14326;50.794;6.060;2023-04-03T03:51:58;100890.38;;;0.44;100.00
26719;BME280;14326;50.794;6.060;2023-04-03T03:54:45;100899.06;;;0.31;100.00
26719;BME280;14326;50.794;6.060;2023-04-03T03:57:26;100897.25;;;0.30;100.00
26719;BME280;14326;50.794;6.060;2023-04-03T04:00:23;100893.31;;;0.23;100.00
26719;BME280;14326;50.794;6.060;2023-04-03T04:02:52;100886.78;;;0.30;100.00
26719;BME280;14326;50.794;6.060;2023-04-03T04:05:19;100900.69;;;0.29;100.00
26719;BME280;14326;50.794;6.060;2023-04-03T04:08:03;100898.63;;;0.25;100.00
26719;BME280;14326;50.794;6.060;2023-04-03T04:10:40;100891.81;;;0.27;100.00
26719;BME280;14326;50.794;6.060;2023-04-03T04:13:07;100894.34;;;0.14;100.00
26719;BME280;14326;50.794;6.060;2023-04-03T04:15:44;100908.19;;;0.24;100.00
26719;BME280;14326;50.794;6.060;2023-04-03T04:18:12;100895.34;;;0.27;100.00
26719;BME280;14326;50.794;6.060;2023-04-03T04:20:44;100896.50;;;0.19;100.00
26719;BME280;14326;50.794;6.060;2023-04-03T04:23:12;100903.91;;;0.13;100.00
26719;BME280;14326;50.794;6.060;2023-04-03T04:25:40;100905.72;;;0.14;100.00
26719;BME280;14326;50.794;6.060;2023-04-03T04:28:10;100907.25;;;0.11;100.00
26719;BME280;14326;50.794;6.060;2023-04-03T04:30:52;100906.66;;;0.15;100.00
26719;BME280;14326;50.794;6.060;2023-04-03T04:33:34;100909.63;;;0.08;100.00
26719;BME280;14326;50.794;6.060;2023-04-03T04:36:09;100918.34;;;0.20;100.00
26719;BME280;14326;50.794;6.060;2023-04-03T04:38:41;100907.69;;;0.17;100.00
26719;BME280;14326;50.794;6.060;2023-04-03T04:41:25;100911.69;;;0.12;100.00
26719;BME280;14326;50.794;6.060;2023-04-03T04:44:10;100910.34;;;0.05;100.00
26719;BME280;14326;50.794;6.060;2023-04-03T04:46:47;100912.56;;;0.12;100.00
26719;BME280;14326;50.794;6.060;2023-04-03T04:49:19;100914.88;;;-0.04;100.00
26719;BME280;14326;50.794;6.060;2023-04-03T04:52:12;100918.97;;;0.04;100.00
26719;BME280;14326;50.794;6.060;2023-04-03T04:54:44;100927.41;;;0.00;100.00
26719;BME280;14326;50.794;6.060;2023-04-03T04:57:20;100916.72;;;-0.03;100.00
26719;BME280;14326;50.794;6.060;2023-04-03T05:00:25;100923.44;;;-0.07;100.00
26719;BME280;14326;50.794;6.060;2023-04-03T05:03:14;100926.13;;;-0.05;100.00
26719;BME280;14326;50.794;6.060;2023-04-03T05:05:57;100930.09;;;0.02;100.00
26719;BME280;14326;50.794;6.060;2023-04-03T05:08:45;100922.19;;;0.00;100.00
26719;BME280;14326;50.794;6.060;2023-04-03T05:11:19;100924.41;;;0.07;100.00
26719;BME280;14326;50.794;6.060;2023-04-03T05:13:58;100931.13;;;0.04;100.00
26719;BME280;14326;50.794;6.060;2023-04-03T05:16:42;100935.59;;;-0.07;100.00
26719;BME280;14326;50.794;6.060;2023-04-03T05:19:26;100937.63;;;-0.03;100.00
26719;BME280;14326;50.794;6.060;2023-04-03T05:22:12;100932.16;;;0.06;100.00
26719;BME280;14326;50.794;6.060;2023-04-03T05:24:50;100937.41;;;0.06;100.00
26719;BME280;14326;50.794;6.060;2023-04-03T05:27:19;100939.53;;;0.11;100.00
26719;BME280;14326;50.794;6.060;2023-04-03T05:30:25;100941.00;;;0.08;100.00
26719;BME280;14326;50.794;6.060;2023-04-03T05:32:59;100944.41;;;0.07;100.00
26719;BME280;14326;50.794;6.060;2023-04-03T05:35:50;100946.81;;;0.04;100.00
26719;BME280;14326;50.794;6.060;2023-04-03T05:38:41;100952.06;;;0.04;100.00
26719;BME280;14326;50.794;6.060;2023-04-03T05:41:19;100948.56;;;0.64;100.00
26719;BME280;14326;50.794;6.060;2023-04-03T05:44:03;100949.78;;;1.20;100.00
26719;BME280;14326;50.794;6.060;2023-04-03T05:46:30;100953.50;;;1.24;100.00
26719;BME280;14326;50.794;6.060;2023-04-03T05:49:09;100944.16;;;1.80;100.00
26719;BME280;14326;50.794;6.060;2023-04-03T05:51:55;100941.41;;;2.88;99.53
26719;BME280;14326;50.794;6.060;2023-04-03T05:54:32;100935.22;;;3.76;92.02
26719;BME280;14326;50.794;6.060;2023-04-03T05:57:03;100936.84;;;4.36;87.01
26719;BME280;14326;50.794;6.060;2023-04-03T05:59:38;100941.41;;;5.05;82.51
26719;BME280;14326;50.794;6.060;2023-04-03T06:02:18;100934.78;;;5.29;81.59
26719;BME280;14326;50.794;6.060;2023-04-03T06:05:13;100936.91;;;5.54;79.36
26719;BME280;14326;50.794;6.060;2023-04-03T06:07:44;100938.97;;;5.77;76.83
26719;BME280;14326;50.794;6.060;2023-04-03T06:10:12;100941.91;;;6.01;77.58
26719;BME280;14326;50.794;6.060;2023-04-03T06:12:39;100943.38;;;6.31;75.27
26719;BME280;14326;50.794;6.060;2023-04-03T06:15:13;100942.03;;;6.39;73.81
26719;BME280;14326;50.794;6.060;2023-04-03T06:17:43;100944.28;;;6.32;74.25
26719;BME280;14326;50.794;6.060;2023-04-03T06:20:21;100951.97;;;5.90;75.28
26719;BME280;14326;50.794;6.060;2023-04-03T06:22:51;100944.66;;;5.33;79.71
26719;BME280;14326;50.794;6.060;2023-04-03T06:25:18;100953.22;;;4.79;82.21
26719;BME280;14326;50.794;6.060;2023-04-03T06:27:47;100951.78;;;4.21;86.41
26719;BME280;14326;50.794;6.060;2023-04-03T06:30:14;100958.00;;;3.61;89.09
26719;BME280;14326;50.794;6.060;2023-04-03T06:32:50;100959.38;;;3.40;91.72
26719;BME280;14326;50.794;6.060;2023-04-03T06:35:22;100969.28;;;3.29;94.00
26719;BME280;14326;50.794;6.060;2023-04-03T06:38:07;100965.00;;;3.16;94.47
26719;BME280;14326;50.794;6.060;2023-04-03T06:40:48;100967.06;;;3.07;94.51
26719;BME280;14326;50.794;6.060;2023-04-03T06:43:21;100966.88;;;3.04;95.63
26719;BME280;14326;50.794;6.060;2023-04-03T06:46:08;100965.44;;;3.39;92.85
26719;BME280;14326;50.794;6.060;2023-04-03T06:48:48;100961.81;;;4.11;92.50
26719;BME280;14326;50.794;6.060;2023-04-03T06:51:25;100965.34;;;4.75;87.40
26719;BME280;14326;50.794;6.060;2023-04-03T06:54:14;100959.13;;;4.91;82.48
26719;BME280;14326;50.794;6.060;2023-04-03T06:56:46;100956.19;;;5.35;83.26
26719;BME280;14326;50.794;6.060;2023-04-03T06:59:14;100951.19;;;5.75;80.34
26719;BME280;14326;50.794;6.060;2023-04-03T07:01:46;100955.47;;;6.26;75.35
26719;BME280;14326;50.794;6.060;2023-04-03T07:04:22;100958.47;;;6.71;74.59
26719;BME280;14326;50.794;6.060;2023-04-03T07:06:56;100960.06;;;7.06;73.71
26719;BME280;14326;50.794;6.060;2023-04-03T07:09:25;100954.25;;;7.33;70.52
26719;BME280;14326;50.794;6.060;2023-04-03T07:12:03;100950.78;;;7.76;69.61
26719;BME280;14326;50.794;6.060;2023-04-03T07:14:52;100961.72;;;7.44;69.32
26719;BME280;14326;50.794;6.060;2023-04-03T07:17:19;100961.94;;;7.08;69.49
26719;BME280;14326;50.794;6.060;2023-04-03T07:19:49;100962.91;;;7.50;70.65
26719;BME280;14326;50.794;6.060;2023-04-03T07:22:21;100969.59;;;7.02;68.25
26719;BME280;14326;50.794;6.060;2023-04-03T07:24:51;100969.78;;;6.49;71.93
26719;BME280;14326;50.794;6.060;2023-04-03T07:27:21;100968.88;;;7.25;69.92
26719;BME280;14326;50.794;6.060;2023-04-03T07:29:51;100962.69;;;7.66;68.89
26719;BME280;14326;50.794;6.060;2023-04-03T07:32:23;100966.31;;;8.10;66.70
26719;BME280;14326;50.794;6.060;2023-04-03T07:34:59;100964.75;;;7.32;66.94
26719;BME280;14326;50.794;6.060;2023-04-03T07:37:46;100971.47;;;6.47;67.39
26719;BME280;14326;50.794;6.060;2023-04-03T07:40:20;100972.44;;;6.31;69.44
26719;BME280;14326;50.794;6.060;2023-04-03T07:43:28;100975.78;;;6.27;70.10
26719;BME280;14326;50.794;6.060;2023-04-03T07:46:08;100972.19;;;6.07;70.45
26719;BME280;14326;50.794;6.060;2023-04-03T07:48:40;100966.63;;;6.75;70.88
26719;BME280;14326;50.794;6.060;2023-04-03T07:51:14;100971.19;;;6.79;66.16
26719;BME280;14326;50.794;6.060;2023-04-03T07:54:01;100973.78;;;6.58;67.54
26719;BME280;14326;50.794;6.060;2023-04-03T07:56:39;100978.56;;;6.67;66.85
26719;BME280;14326;50.794;6.060;2023-04-03T07:59:17;100975.28;;;6.73;65.36
26719;BME280;14326;50.794;6.060;2023-04-03T08:01:44;100976.66;;;6.82;66.66
26719;BME280;14326;50.794;6.060;2023-04-03T08:04:11;100974.06;;;6.65;66.68
26719;BME280;14326;50.794;6.060;2023-04-03T08:10:09;100977.31;;;6.97;67.48
26719;BME280;14326;50.794;6.060;2023-04-03T08:12:58;100978.31;;;6.99;64.97
26719;BME280;14326;50.794;6.060;2023-04-03T08:15:40;100963.66;;;7.27;65.81
26719;BME280;14326;50.794;6.060;2023-04-03T08:18:13;100957.22;;;7.62;65.58
26719;BME280;14326;50.794;6.060;2023-04-03T08:20:56;100968.88;;;7.25;67.11
26719;BME280;14326;50.794;6.060;2023-04-03T08:23:49;100964.53;;;7.47;64.29
26719;BME280;14326;50.794;6.060;2023-04-03T08:26:21;100977.56;;;7.83;63.86
26719;BME280;14326;50.794;6.060;2023-04-03T08:28:52;100973.78;;;8.41;63.45
26719;BME280;14326;50.794;6.060;2023-04-03T08:31:24;100976.16;;;8.57;62.31
26719;BME280;14326;50.794;6.060;2023-04-03T08:33:51;100973.09;;;8.46;59.83
26719;BME280;14326;50.794;6.060;2023-04-03T08:36:20;100974.16;;;8.07;59.88
26719;BME280;14326;50.794;6.060;2023-04-03T08:38:53;100978.28;;;7.79;62.92
26719;BME280;14326;50.794;6.060;2023-04-03T08:41:33;100973.06;;;7.81;61.89
26719;BME280;14326;50.794;6.060;2023-04-03T08:44:14;100982.28;;;8.11;62.88
26719;BME280;14326;50.794;6.060;2023-04-03T08:47:15;100979.56;;;8.10;60.96
26719;BME280;14326;50.794;6.060;2023-04-03T08:49:55;100988.00;;;8.01;62.76
26719;BME280;14326;50.794;6.060;2023-04-03T08:52:34;100996.28;;;8.30;60.82
26719;BME280;14326;50.794;6.060;2023-04-03T08:55:04;100999.38;;;8.19;63.33
26719;BME280;14326;50.794;6.060;2023-04-03T08:57:53;101002.69;;;8.35;61.51
26719;BME280;14326;50.794;6.060;2023-04-03T09:00:41;100996.72;;;7.76;60.74
26719;BME280;14326;50.794;6.060;2023-04-03T09:03:16;101004.34;;;7.50;61.52
26719;BME280;14326;50.794;6.060;2023-04-03T09:05:48;101002.69;;;7.72;59.40
26719;BME280;14326;50.794;6.060;2023-04-03T09:08:22;101008.97;;;8.16;58.45
26719;BME280;14326;50.794;6.060;2023-04-03T09:11:03;101024.31;;;7.42;57.64
26719;BME280;14326;50.794;6.060;2023-04-03T09:13:41;101004.81;;;7.20;61.78
26719;BME280;14326;50.794;6.060;2023-04-03T09:16:34;101007.03;;;7.30;63.95
26719;BME280;14326;50.794;6.060;2023-04-03T09:19:15;101000.63;;;7.86;66.12
26719;BME280;14326;50.794;6.060;2023-04-03T09:21:49;100994.47;;;8.08;60.38
26719;BME280;14326;50.794;6.060;2023-04-03T09:24:25;100981.72;;;8.41;61.93
26719;BME280;14326;50.794;6.060;2023-04-03T09:27:24;100991.72;;;8.70;59.35
26719;BME280;14326;50.794;6.060;2023-04-03T09:29:53;100990.88;;;8.49;60.34
26719;BME280;14326;50.794;6.060;2023-04-03T09:32:27;100992.25;;;8.39;59.69
26719;BME280;14326;50.794;6.060;2023-04-03T09:34:55;100989.38;;;8.33;60.58
26719;BME280;14326;50.794;6.060;2023-04-03T09:38:14;100993.41;;;7.82;59.31
26719;BME280;14326;50.794;6.060;2023-04-03T09:40:37;100990.34;;;7.52;61.33
26719;BME280;14326;50.794;6.060;2023-04-03T09:43:31;100991.00;;;7.47;63.36
26719;BME280;14326;50.794;6.060;2023-04-03T09:46:28;100982.88;;;7.23;64.27
26719;BME280;14326;50.794;6.060;2023-04-03T09:49:43;100978.28;;;8.00;62.33
26719;BME280;14326;50.794;6.060;2023-04-03T09:52:19;100994.03;;;7.97;56.15
26719;BME280;14326;50.794;6.060;2023-04-03T09:55:13;100979.25;;;7.21;55.19
26719;BME280;14326;50.794;6.060;2023-04-03T09:58:04;100987.22;;;6.82;56.37
26719;BME280;14326;50.794;6.060;2023-04-03T10:00:39;100982.88;;;7.23;56.22
26719;BME280;14326;50.794;6.060;2023-04-03T10:03:29;100980.41;;;7.67;56.95
26719;BME280;14326;50.794;6.060;2023-04-03T10:06:22;100980.94;;;8.00;56.00
26719;BME280;14326;50.794;6.060;2023-04-03T10:09:05;100974.44;;;8.35;54.06
26719;BME280;14326;50.794;6.060;2023-04-03T10:12:02;100976.50;;;8.21;56.11
26719;BME280;14326;50.794;6.060;2023-04-03T10:14:30;100977.03;;;8.34;54.57
26719;BME280;14326;50.794;6.060;2023-04-03T10:17:29;100977.44;;;8.44;55.94
26719;BME280;14326;50.794;6.060;2023-04-03T10:20:31;100973.38;;;8.32;56.08
26719;BME280;14326;50.794;6.060;2023-04-03T10:23:28;100986.41;;;8.70;55.12
26719;BME280;14326;50.794;6.060;2023-04-03T10:26:12;100970.03;;;8.15;52.89
26719;BME280;14326;50.794;6.060;2023-04-03T10:29:16;100972.03;;;8.20;53.29
26719;BME280;14326;50.794;6.060;2023-04-03T10:31:58;100953.72;;;8.27;54.49
26719;BME280;14326;50.794;6.060;2023-04-03T10:37:14;100958.25;;;7.45;54.82
26719;BME280;14326;50.794;6.060;2023-04-03T10:39:52;100963.31;;;8.02;54.83
26719;BME280;14326;50.794;6.060;2023-04-03T10:42:26;100954.63;;;8.27;54.17
26719;BME280;14326;50.794;6.060;2023-04-03T10:45:08;100950.16;;;8.47;52.70
26719;BME280;14326;50.794;6.060;2023-04-03T10:47:46;100940.44;;;8.47;52.68
26719;BME280;14326;50.794;6.060;2023-04-03T10:50:29;100959.06;;;8.71;51.92
26719;BME280;14326;50.794;6.060;2023-04-03T10:53:16;100956.41;;;8.49;51.70
26719;BME280;14326;50.794;6.060;2023-04-03T10:56:01;100947.53;;;8.71;51.13
26719;BME280;14326;50.794;6.060;2023-04-03T10:58:34;100942.41;;;8.75;52.63
26719;BME280;14326;50.794;6.060;2023-04-03T11:01:29;100945.66;;;8.68;51.00
26719;BME280;14326;50.794;6.060;2023-04-03T11:04:05;100936.34;;;8.79;52.71
26719;BME280;14326;50.794;6.060;2023-04-03T11:06:53;100927.16;;;8.93;50.74
26719;BME280;14326;50.794;6.060;2023-04-03T11:09:31;100933.31;;;8.69;50.14
26719;BME280;14326;50.794;6.060;2023-04-03T11:12:24;100927.00;;;8.65;50.93
26719;BME280;14326;50.794;6.060;2023-04-03T11:15:04;100920.66;;;8.85;49.83
26719;BME280;14326;50.794;6.060;2023-04-03T11:17:48;100924.56;;;8.71;48.58
26719;BME280;14326;50.794;6.060;2023-04-03T11:20:41;100921.00;;;8.71;48.92
26719;BME280;14326;50.794;6.060;2023-04-03T11:23:23;100920.69;;;8.39;47.35
26719;BME280;14326;50.794;6.060;2023-04-03T11:26:04;100924.34;;;8.43;49.10
26719;BME280;14326;50.794;6.060;2023-04-03T11:28:37;100913.66;;;8.63;46.20
26719;BME280;14326;50.794;6.060;2023-04-03T11:31:42;100903.66;;;9.04;48.42
26719;BME280;14326;50.794;6.060;2023-04-03T11:34:34;100919.66;;;9.06;45.51
26719;BME280;14326;50.794;6.060;2023-04-03T11:37:20;100909.34;;;8.89;45.51
26719;BME280;14326;50.794;6.060;2023-04-03T11:40:25;100907.97;;;8.77;46.49
26719;BME280;14326;50.794;6.060;2023-04-03T11:43:07;100911.00;;;8.87;45.79
26719;BME280;14326;50.794;6.060;2023-04-03T11:45:53;100900.16;;;9.05;45.16
26719;BME280;14326;50.794;6.060;2023-04-03T11:48:55;100891.09;;;9.24;44.55
26719;BME280;14326;50.794;6.060;2023-04-03T11:51:45;100876.09;;;9.26;44.17
26719;BME280;14326;50.794;6.060;2023-04-03T11:54:56;100896.91;;;8.88;44.23
26719;BME280;14326;50.794;6.060;2023-04-03T11:58:13;100889.84;;;8.89;43.36
26719;BME280;14326;50.794;6.060;2023-04-03T12:01:42;100892.22;;;8.81;43.24
26719;BME280;14326;50.794;6.060;2023-04-03T12:04:30;100885.00;;;8.77;45.22
26719;BME280;14326;50.794;6.060;2023-04-03T12:10:13;100881.16;;;8.93;44.34
26719;BME280;14326;50.794;6.060;2023-04-03T12:12:43;100864.00;;;9.09;45.01
26719;BME280;14326;50.794;6.060;2023-04-03T12:18:54;100868.41;;;9.60;41.96
26719;BME280;14326;50.794;6.060;2023-04-03T12:22:04;100870.75;;;9.76;41.62
26719;BME280;14326;50.794;6.060;2023-04-03T12:24:50;100868.34;;;9.57;39.96
26719;BME280;14326;50.794;6.060;2023-04-03T12:27:33;100861.34;;;9.59;42.11
26719;BME280;14326;50.794;6.060;2023-04-03T12:30:17;100856.94;;;9.61;43.81
26719;BME280;14326;50.794;6.060;2023-04-03T12:33:09;100857.22;;;9.42;41.82
26719;BME280;14326;50.794;6.060;2023-04-03T12:35:57;100851.72;;;9.37;42.17
26719;BME280;14326;50.794;6.060;2023-04-03T12:38:45;100862.81;;;9.51;42.75
26719;BME280;14326;50.794;6.060;2023-04-03T12:41:29;100856.00;;;9.59;42.31
26719;BME280;14326;50.794;6.060;2023-04-03T12:44:38;100855.88;;;9.29;43.03
26719;BME280;14326;50.794;6.060;2023-04-03T12:47:22;100839.25;;;9.35;43.89
26719;BME280;14326;50.794;6.060;2023-04-03T12:49:49;100832.34;;;9.67;43.57
26719;BME280;14326;50.794;6.060;2023-04-03T12:52:26;100833.09;;;9.91;43.81
26719;BME280;14326;50.794;6.060;2023-04-03T12:54:59;100839.84;;;10.08;42.37
26719;BME280;14326;50.794;6.060;2023-04-03T12:57:30;100830.50;;;9.64;40.98
26719;BME280;14326;50.794;6.060;2023-04-03T12:59:57;100836.00;;;9.43;43.06
26719;BME280;14326;50.794;6.060;2023-04-03T13:02:26;100826.47;;;9.77;41.46
26719;BME280;14326;50.794;6.060;2023-04-03T13:04:55;100829.47;;;9.88;41.84
26719;BME280;14326;50.794;6.060;2023-04-03T13:07:24;100843.53;;;10.12;41.71
26719;BME280;14326;50.794;6.060;2023-04-03T13:10:09;100822.78;;;9.72;40.92
26719;BME280;14326;50.794;6.060;2023-04-03T13:12:46;100825.78;;;9.84;42.35
26719;BME280;14326;50.794;6.060;2023-04-03T13:15:15;100824.94;;;9.57;41.91
26719;BME280;14326;50.794;6.060;2023-04-03T13:17:43;100814.34;;;9.58;41.66
26719;BME280;14326;50.794;6.060;2023-04-03T13:20:14;100817.69;;;9.79;39.73
26719;BME280;14326;50.794;6.060;2023-04-03T13:22:48;100815.66;;;9.71;39.88
26719;BME280;14326;50.794;6.060;2023-04-03T13:25:20;100820.84;;;9.95;41.28
26719;BME280;14326;50.794;6.060;2023-04-03T13:27:55;100814.03;;;9.48;38.26
26719;BME280;14326;50.794;6.060;2023-04-03T13:30:34;100821.50;;;9.61;39.37
26719;BME280;14326;50.794;6.060;2023-04-03T13:33:06;100817.78;;;9.54;38.82
26719;BME280;14326;50.794;6.060;2023-04-03T13:35:36;100816.97;;;9.30;39.04
26719;BME280;14326;50.794;6.060;2023-04-03T13:38:21;100809.63;;;9.48;39.07
26719;BME280;14326;50.794;6.060;2023-04-03T13:40:52;100812.34;;;9.51;40.16
26719;BME280;14326;50.794;6.060;2023-04-03T13:43:22;100805.44;;;9.56;40.12
26719;BME280;14326;50.794;6.060;2023-04-03T13:45:56;100806.78;;;9.43;39.78
26719;BME280;14326;50.794;6.060;2023-04-03T13:48:24;100802.63;;;9.52;40.97
26719;BME280;14326;50.794;6.060;2023-04-03T13:51:21;100804.13;;;9.70;39.10
26719;BME280;14326;50.794;6.060;2023-04-03T13:53:53;100795.56;;;9.52;38.11
26719;BME280;14326;50.794;6.060;2023-04-03T13:56:25;100803.34;;;9.74;38.85
26719;BME280;14326;50.794;6.060;2023-04-03T13:59:20;100790.06;;;9.46;39.18
26719;BME280;14326;50.794;6.060;2023-04-03T14:02:32;100802.03;;;9.89;41.88
26719;BME280;14326;50.794;6.060;2023-04-03T14:05:29;100787.13;;;9.94;39.03
26719;BME280;14326;50.794;6.060;2023-04-03T14:07:57;100787.59;;;10.09;39.42
26719;BME280;14326;50.794;6.060;2023-04-03T14:10:41;100787.53;;;10.07;38.97
26719;BME280;14326;50.794;6.060;2023-04-03T14:13:30;100788.25;;;10.02;39.02
26719;BME280;14326;50.794;6.060;2023-04-03T14:16:22;100779.41;;;10.01;39.81
26719;BME280;14326;50.794;6.060;2023-04-03T14:19:00;100776.81;;;10.04;40.01
26719;BME280;14326;50.794;6.060;2023-04-03T14:21:28;100769.41;;;10.22;40.16
26719;BME280;14326;50.794;6.060;2023-04-03T14:24:04;100760.97;;;10.37;40.28
26719;BME280;14326;50.794;6.060;2023-04-03T14:26:37;100760.63;;;10.25;40.48
26719;BME280;14326;50.794;6.060;2023-04-03T14:29:32;100759.09;;;10.33;40.77
26719;BME280;14326;50.794;6.060;2023-04-03T14:31:58;100758.34;;;10.39;41.03
26719;BME280;14326;50.794;6.060;2023-04-03T14:34:25;100760.22;;;10.43;40.07
26719;BME280;14326;50.794;6.060;2023-04-03T14:36:52;100754.06;;;10.44;40.14
26719;BME280;14326;50.794;6.060;2023-04-03T14:39:19;100763.25;;;10.23;39.59
26719;BME280;14326;50.794;6.060;2023-04-03T14:41:46;100751.84;;;10.27;40.29
26719;BME280;14326;50.794;6.060;2023-04-03T14:44:13;100760.88;;;10.34;40.68
26719;BME280;14326;50.794;6.060;2023-04-03T14:46:42;100745.00;;;10.37;39.48
26719;BME280;14326;50.794;6.060;2023-04-03T14:49:12;100752.81;;;10.01;38.46
26719;BME280;14326;50.794;6.060;2023-04-03T14:51:40;100743.13;;;10.03;40.84
26719;BME280;14326;50.794;6.060;2023-04-03T14:54:12;100746.91;;;9.81;40.35
26719;BME280;14326;50.794;6.060;2023-04-03T14:56:39;100748.91;;;9.89;39.53
26719;BME280;14326;50.794;6.060;2023-04-03T14:59:11;100748.00;;;9.90;39.45
26719;BME280;14326;50.794;6.060;2023-04-03T15:01:38;100741.63;;;9.83;39.09
26719;BME280;14326;50.794;6.060;2023-04-03T15:04:22;100738.56;;;9.99;40.72
26719;BME280;14326;50.794;6.060;2023-04-03T15:07:07;100733.88;;;10.19;38.83
26719;BME280;14326;50.794;6.060;2023-04-03T15:09:53;100752.56;;;10.22;39.13
26719;BME280;14326;50.794;6.060;2023-04-03T15:12:47;100735.88;;;9.98;38.86
26719;BME280;14326;50.794;6.060;2023-04-03T15:18:18;100727.88;;;9.98;38.67
26719;BME280;14326;50.794;6.060;2023-04-03T15:21:14;100717.78;;;10.16;37.90
26719;BME280;14326;50.794;6.060;2023-04-03T15:27:06;100728.91;;;10.01;39.59
26719;BME280;14326;50.794;6.060;2023-04-03T15:29:50;100729.78;;;10.02;37.21
26719;BME280;14326;50.794;6.060;2023-04-03T15:32:51;100737.13;;;10.10;37.79
26719;BME280;14326;50.794;6.060;2023-04-03T15:35:20;100728.06;;;10.04;37.86
26719;BME280;14326;50.794;6.060;2023-04-03T15:38:23;100731.09;;;9.86;38.74
26719;BME280;14326;50.794;6.060;2023-04-03T15:40:50;100736.16;;;10.07;39.68
26719;BME280;14326;50.794;6.060;2023-04-03T15:43:17;100739.66;;;10.06;37.70